createdAt,value
2019-01-31T00:02:56.190Z,1.90
2019-01-31T00:06:04.072Z,1.80
2019-01-31T00:09:14.811Z,2.27
2019-01-31T00:12:26.609Z,2.07
2019-01-31T00:15:52.608Z,1.83
2019-01-31T00:18:34.260Z,2.10
2019-01-31T00:21:36.193Z,2.00
2019-01-31T00:24:32.629Z,2.63
2019-01-31T00:27:39.818Z,2.80
2019-01-31T00:30:44.836Z,2.50
2019-01-31T00:33:46.106Z,2.10
2019-01-31T00:36:48.071Z,2.37
2019-01-31T00:39:53.763Z,2.53
2019-01-31T00:43:01.072Z,2.10
2019-01-31T00:46:13.158Z,2.30
2019-01-31T00:49:13.218Z,2.20
2019-01-31T00:52:11.819Z,2.33
2019-01-31T00:55:19.940Z,2.10
2019-01-31T00:58:32.703Z,2.37
2019-01-31T01:01:46.608Z,2.47
2019-01-31T01:04:34.209Z,2.00
2019-01-31T01:07:19.819Z,2.50
2019-01-31T01:10:39.604Z,2.53
2019-01-31T01:13:49.556Z,2.20
2019-01-31T01:16:50.411Z,2.20
2019-01-31T01:19:32.888Z,2.17
2019-01-31T01:22:43.577Z,2.50
2019-01-31T01:25:34.075Z,2.47
2019-01-31T01:28:40.297Z,2.20
2019-01-31T01:31:51.026Z,2.10
2019-01-31T01:35:01.177Z,1.90
2019-01-31T01:37:54.125Z,2.13
2019-01-31T01:40:51.585Z,2.20
2019-01-31T01:43:46.708Z,1.70
2019-01-31T01:46:39.315Z,1.93
2019-01-31T01:49:36.905Z,1.53
2019-01-31T01:52:21.562Z,2.23
2019-01-31T01:55:07.840Z,1.83
2019-01-31T01:58:07.213Z,2.20
2019-01-31T02:01:09.029Z,2.20
2019-01-31T02:04:04.500Z,2.57
2019-01-31T02:07:08.639Z,2.13
2019-01-31T02:10:19.603Z,2.00
2019-01-31T02:13:29.955Z,2.53
2019-01-31T02:16:43.883Z,2.10
2019-01-31T02:19:57.383Z,2.00
2019-01-31T02:23:01.684Z,2.40
2019-01-31T02:25:50.191Z,1.87
2019-01-31T02:28:39.050Z,2.07
2019-01-31T02:31:45.348Z,1.83
2019-01-31T02:35:00.696Z,2.50
2019-01-31T02:37:42.070Z,2.50
2019-01-31T02:40:26.603Z,2.77
2019-01-31T02:43:20.479Z,1.87
2019-01-31T02:46:26.030Z,2.17
2019-01-31T02:49:10.691Z,2.07
2019-01-31T02:52:11.995Z,2.17
2019-01-31T02:55:40.056Z,1.90
2019-01-31T02:58:33.563Z,1.80
2019-01-31T03:01:32.925Z,1.73
2019-01-31T03:04:55.440Z,2.13
2019-01-31T03:07:43.481Z,1.60
2019-01-31T03:10:46.857Z,2.00
2019-01-31T03:13:47.699Z,2.57
2019-01-31T03:17:10.224Z,2.30
2019-01-31T03:20:32.747Z,2.07
2019-01-31T03:24:10.625Z,2.20
2019-01-31T03:27:24.880Z,2.10
2019-01-31T03:30:40.544Z,1.90
2019-01-31T03:33:34.545Z,2.40
2019-01-31T03:36:31.699Z,1.90
2019-01-31T03:39:42.369Z,2.40
2019-01-31T03:43:02.053Z,2.00
2019-01-31T03:46:23.634Z,2.30
2019-01-31T03:49:00.351Z,2.10
2019-01-31T03:52:01.811Z,2.73
2019-01-31T03:54:53.940Z,2.50
2019-01-31T03:58:13.101Z,2.77
2019-01-31T04:01:08.172Z,2.40
2019-01-31T04:03:44.868Z,2.30
2019-01-31T04:06:27.197Z,2.40
2019-01-31T04:08:57.091Z,2.50
2019-01-31T04:11:26.922Z,2.60
2019-01-31T04:13:56.950Z,2.70
2019-01-31T04:16:26.857Z,2.43
2019-01-31T04:18:56.723Z,2.60
2019-01-31T04:21:26.580Z,1.90
2019-01-31T04:23:56.428Z,2.80
2019-01-31T04:26:26.267Z,2.70
2019-01-31T04:28:56.192Z,2.73
2019-01-31T04:31:26.037Z,2.50
2019-01-31T04:33:55.886Z,2.63
2019-01-31T04:36:25.731Z,3.20
2019-01-31T04:38:55.917Z,2.70
2019-01-31T04:41:25.853Z,2.43
2019-01-31T04:43:55.713Z,2.40
2019-01-31T04:46:25.560Z,3.37
2019-01-31T04:48:55.543Z,2.60
2019-01-31T04:51:25.439Z,2.90
2019-01-31T04:53:55.269Z,2.63
2019-01-31T04:56:25.295Z,2.80
2019-01-31T04:58:55.319Z,2.40
2019-01-31T05:01:26.592Z,2.63
2019-01-31T05:03:56.776Z,3.37
2019-01-31T05:06:26.791Z,4.17
2019-01-31T05:08:56.687Z,3.83
2019-01-31T05:11:26.625Z,3.60
2019-01-31T05:13:56.715Z,3.37
2019-01-31T05:16:26.680Z,3.03
2019-01-31T05:18:56.743Z,3.97
2019-01-31T05:21:26.620Z,3.97
2019-01-31T05:23:56.516Z,3.20
2019-01-31T05:26:26.497Z,3.20
2019-01-31T05:28:56.389Z,3.20
2019-01-31T05:31:26.272Z,3.43
2019-01-31T05:33:56.168Z,3.40
2019-01-31T05:36:26.052Z,3.30
2019-01-31T05:38:56.112Z,3.17
2019-01-31T05:41:26.015Z,3.07
2019-01-31T05:43:56.003Z,3.17
2019-01-31T05:46:25.941Z,3.17
2019-01-31T05:48:55.853Z,2.90
2019-01-31T05:51:25.835Z,3.23
2019-01-31T05:53:56.520Z,3.30
2019-01-31T05:56:26.808Z,3.20
2019-01-31T05:58:58.176Z,3.80
2019-01-31T06:01:28.376Z,3.03
2019-01-31T06:03:58.382Z,3.50
2019-01-31T06:06:28.409Z,3.87
2019-01-31T06:08:58.399Z,4.17
2019-01-31T06:11:28.426Z,4.43
2019-01-31T06:13:58.337Z,4.33
2019-01-31T06:16:28.328Z,3.87
2019-01-31T06:18:58.733Z,3.40
2019-01-31T06:21:28.654Z,3.70
2019-01-31T06:23:58.556Z,3.77
2019-01-31T06:26:28.466Z,3.50
2019-01-31T06:28:58.426Z,3.63
2019-01-31T06:31:28.333Z,4.07
2019-01-31T06:33:58.212Z,3.90
2019-01-31T06:36:28.128Z,3.80
2019-01-31T06:38:58.176Z,5.23
2019-01-31T06:41:28.092Z,5.00
2019-01-31T06:43:57.974Z,5.90
2019-01-31T06:46:27.868Z,6.63
2019-01-31T06:48:58.224Z,7.87
2019-01-31T06:51:28.416Z,7.97
2019-01-31T06:53:58.478Z,8.77
2019-01-31T06:56:28.420Z,10.67
2019-01-31T06:58:58.608Z,10.10
2019-01-31T07:01:28.756Z,9.90
2019-01-31T07:03:59.122Z,11.03
2019-01-31T07:06:29.151Z,11.83
2019-01-31T07:08:59.219Z,12.37
2019-01-31T07:11:30.350Z,14.60
2019-01-31T07:14:00.398Z,13.03
2019-01-31T07:16:30.391Z,12.77
2019-01-31T07:19:00.874Z,11.77
2019-01-31T07:21:31.220Z,10.87
2019-01-31T07:24:01.553Z,10.40
2019-01-31T07:26:31.780Z,8.13
2019-01-31T07:29:02.071Z,9.07
2019-01-31T07:31:32.379Z,11.30
2019-01-31T07:34:02.925Z,9.53
2019-01-31T07:36:33.260Z,10.50
2019-01-31T07:39:04.705Z,11.10
2019-01-31T07:41:41.410Z,10.83
2019-01-31T07:44:06.532Z,10.33
2019-01-31T07:46:37.758Z,11.03
2019-01-31T07:49:26.887Z,10.63
2019-01-31T07:51:57.451Z,11.80
2019-01-31T07:54:27.719Z,10.40
2019-01-31T07:56:58.279Z,15.07
2019-01-31T07:59:28.683Z,8.90
2019-01-31T08:01:59.229Z,16.33
2019-01-31T08:04:29.142Z,14.27
2019-01-31T08:06:59.024Z,13.33
2019-01-31T08:09:28.996Z,10.23
2019-01-31T08:11:59.027Z,10.50
2019-01-31T08:14:29.095Z,11.77
2019-01-31T08:16:58.971Z,8.83
2019-01-31T08:19:29.054Z,8.50
2019-01-31T08:21:58.957Z,7.50
2019-01-31T08:24:28.955Z,6.63
2019-01-31T08:26:58.970Z,6.10
2019-01-31T08:29:28.914Z,6.87
2019-01-31T08:31:58.783Z,5.87
2019-01-31T08:34:28.688Z,8.93
2019-01-31T08:36:58.584Z,10.10
2019-01-31T08:39:28.706Z,9.50
2019-01-31T08:42:03.847Z,9.60
2019-01-31T08:44:30.341Z,9.00
2019-01-31T08:47:00.291Z,8.90
2019-01-31T08:49:33.261Z,8.23
2019-01-31T08:52:03.202Z,9.00
2019-01-31T08:54:33.200Z,9.13
2019-01-31T08:57:03.325Z,8.67
2019-01-31T08:59:33.359Z,7.50
2019-01-31T09:02:03.447Z,6.63
2019-01-31T09:04:33.529Z,6.73
2019-01-31T09:07:03.480Z,6.00
2019-01-31T09:09:33.530Z,7.03
2019-01-31T09:12:14.728Z,6.50
2019-01-31T09:14:35.463Z,8.77
2019-01-31T09:17:05.671Z,8.87
2019-01-31T09:19:35.632Z,10.13
2019-01-31T09:22:18.758Z,10.47
2019-01-31T09:25:53.988Z,9.93
2019-01-31T09:29:13.972Z,9.80
2019-01-31T09:32:19.458Z,7.70
2019-01-31T09:35:22.620Z,7.83
2019-01-31T09:38:28.503Z,8.47
2019-01-31T09:41:34.425Z,9.67
2019-01-31T09:44:32.988Z,7.97
2019-01-31T09:47:43.818Z,6.90
2019-01-31T09:51:00.797Z,6.20
2019-01-31T09:53:41.932Z,6.27
2019-01-31T09:56:52.383Z,6.50
2019-01-31T10:00:06.480Z,6.10
2019-01-31T10:03:04.650Z,5.33
2019-01-31T10:05:59.825Z,5.60
2019-01-31T10:09:02.708Z,5.77
2019-01-31T10:12:23.447Z,5.97
2019-01-31T10:15:18.475Z,5.80
2019-01-31T10:18:44.529Z,6.93
2019-01-31T10:21:55.535Z,6.07
2019-01-31T10:24:54.859Z,6.80
2019-01-31T10:28:20.772Z,7.10
2019-01-31T10:31:06.994Z,6.73
2019-01-31T10:34:14.680Z,6.83
2019-01-31T10:37:16.637Z,6.33
2019-01-31T10:40:09.644Z,6.30
2019-01-31T10:43:09.911Z,5.50
2019-01-31T10:46:23.431Z,6.93
2019-01-31T10:49:36.186Z,5.70
2019-01-31T10:52:50.341Z,5.30
2019-01-31T10:55:31.717Z,6.43
2019-01-31T10:58:32.060Z,5.90
2019-01-31T11:01:38.499Z,6.53
2019-01-31T11:04:22.987Z,5.97
2019-01-31T11:07:32.996Z,5.30
2019-01-31T11:10:45.785Z,5.10
2019-01-31T11:13:58.688Z,4.10
2019-01-31T11:17:09.354Z,5.00
2019-01-31T11:19:47.089Z,5.33
2019-01-31T11:22:52.043Z,4.90
2019-01-31T11:25:44.402Z,6.53
2019-01-31T11:28:47.343Z,5.93
2019-01-31T11:31:56.941Z,4.30
2019-01-31T11:35:08.820Z,4.60
2019-01-31T11:37:56.347Z,4.10
2019-01-31T11:41:28.747Z,4.47
2019-01-31T11:44:37.934Z,4.40
2019-01-31T11:47:40.747Z,4.53
2019-01-31T11:50:44.632Z,5.07
2019-01-31T11:53:23.088Z,4.67
2019-01-31T11:56:14.420Z,4.53
2019-01-31T11:59:06.274Z,4.53
2019-01-31T12:01:37.224Z,5.03
2019-01-31T12:04:15.434Z,5.77
2019-01-31T12:06:45.368Z,4.90
2019-01-31T12:09:20.659Z,4.90
2019-01-31T12:11:51.457Z,5.00
2019-01-31T12:14:21.450Z,4.90
2019-01-31T12:16:51.478Z,5.70
2019-01-31T12:19:21.762Z,4.57
2019-01-31T12:21:51.976Z,4.07
2019-01-31T12:24:21.991Z,4.27
2019-01-31T12:26:52.364Z,3.80
2019-01-31T12:29:23.287Z,5.13
2019-01-31T12:31:53.202Z,5.97
2019-01-31T12:34:23.172Z,5.60
2019-01-31T12:36:53.078Z,6.40
2019-01-31T12:39:23.152Z,5.90
2019-01-31T12:41:53.067Z,5.80
2019-01-31T12:44:23.032Z,8.63
2019-01-31T12:46:53.063Z,7.83
2019-01-31T12:49:23.173Z,5.57
2019-01-31T12:51:53.675Z,6.93
2019-01-31T12:54:23.980Z,5.13
2019-01-31T12:56:54.147Z,4.43
2019-01-31T12:59:24.210Z,6.27
2019-01-31T13:01:54.099Z,5.40
2019-01-31T13:04:24.120Z,4.90
2019-01-31T13:06:54.278Z,4.97
2019-01-31T13:09:28.105Z,6.80
2019-01-31T13:11:56.959Z,4.00
2019-01-31T13:14:28.523Z,5.00
2019-01-31T13:16:58.712Z,4.07
2019-01-31T13:19:28.841Z,6.50
2019-01-31T13:21:59.977Z,6.37
2019-01-31T13:24:29.949Z,5.17
2019-01-31T13:26:59.917Z,5.27
2019-01-31T13:29:30.971Z,6.17
2019-01-31T13:32:00.852Z,5.00
2019-01-31T13:34:30.871Z,4.90
2019-01-31T13:37:00.817Z,4.93
2019-01-31T13:39:31.395Z,6.73
2019-01-31T13:42:01.340Z,5.47
2019-01-31T13:44:31.350Z,5.30
2019-01-31T13:47:01.548Z,4.97
2019-01-31T13:49:31.744Z,5.57
2019-01-31T13:52:01.895Z,4.90
2019-01-31T13:54:32.101Z,5.10
2019-01-31T13:57:02.099Z,6.53
2019-01-31T13:59:31.999Z,5.60
2019-01-31T14:02:01.948Z,4.47
2019-01-31T14:04:31.859Z,5.17
2019-01-31T14:07:01.805Z,4.13
2019-01-31T14:09:32.123Z,4.70
2019-01-31T14:12:02.053Z,4.50
2019-01-31T14:14:31.937Z,3.83
2019-01-31T14:17:01.856Z,4.03
2019-01-31T14:19:31.863Z,4.33
2019-01-31T14:22:01.923Z,4.20
2019-01-31T14:24:31.881Z,4.30
2019-01-31T14:27:01.965Z,4.40
2019-01-31T14:29:31.944Z,4.50
2019-01-31T14:32:01.944Z,5.87
2019-01-31T14:34:31.929Z,5.70
2019-01-31T14:37:01.917Z,5.33
2019-01-31T14:39:32.002Z,5.90
2019-01-31T14:42:01.884Z,6.40
2019-01-31T14:44:31.861Z,4.43
2019-01-31T14:47:01.766Z,5.03
2019-01-31T14:49:31.741Z,5.97
2019-01-31T14:52:01.793Z,5.17
2019-01-31T14:54:31.682Z,5.60
2019-01-31T14:57:01.780Z,5.30
2019-01-31T14:59:31.709Z,5.70
2019-01-31T15:02:01.618Z,4.27
2019-01-31T15:04:31.556Z,4.60
2019-01-31T15:07:01.415Z,3.70
2019-01-31T15:09:31.399Z,4.73
2019-01-31T15:12:01.415Z,4.60
2019-01-31T15:14:32.164Z,5.07
2019-01-31T15:17:02.446Z,4.93
2019-01-31T15:19:32.408Z,6.40
2019-01-31T15:22:02.342Z,4.80
2019-01-31T15:24:32.335Z,5.50
2019-01-31T15:27:02.293Z,5.27
2019-01-31T15:29:32.253Z,5.73
2019-01-31T15:32:02.158Z,5.27
2019-01-31T15:34:32.071Z,5.43
2019-01-31T15:37:02.287Z,5.43
2019-01-31T15:39:32.495Z,5.73
2019-01-31T15:42:02.500Z,5.73
2019-01-31T15:44:42.792Z,6.23
2019-01-31T15:47:04.100Z,6.10
2019-01-31T15:49:34.188Z,6.93
2019-01-31T15:52:04.513Z,7.50
2019-01-31T15:54:34.451Z,7.00
2019-01-31T15:57:16.041Z,7.77
2019-01-31T15:59:36.168Z,7.70
2019-01-31T16:02:06.304Z,9.67
2019-01-31T16:04:36.444Z,7.80
2019-01-31T16:07:06.408Z,7.40
2019-01-31T16:09:36.786Z,7.87
2019-01-31T16:12:06.991Z,7.03
2019-01-31T16:14:37.082Z,6.90
2019-01-31T16:17:07.215Z,7.10
2019-01-31T16:19:37.150Z,7.87
2019-01-31T16:22:07.670Z,7.20
2019-01-31T16:24:37.608Z,6.37
2019-01-31T16:27:07.621Z,6.87
2019-01-31T16:29:37.640Z,7.10
2019-01-31T16:32:07.593Z,7.03
2019-01-31T16:34:37.469Z,8.30
2019-01-31T16:37:07.553Z,7.77
2019-01-31T16:39:37.723Z,7.77
2019-01-31T16:42:07.621Z,8.63
2019-01-31T16:44:37.600Z,8.93
2019-01-31T16:47:07.709Z,11.20
2019-01-31T16:49:37.773Z,11.97
2019-01-31T16:52:09.133Z,12.17
2019-01-31T16:54:40.483Z,11.50
2019-01-31T16:57:11.713Z,8.67
2019-01-31T16:59:42.828Z,8.67
2019-01-31T17:02:14.225Z,8.20
2019-01-31T17:04:46.449Z,8.33
2019-01-31T17:07:16.450Z,9.77
2019-01-31T17:09:46.822Z,9.83
2019-01-31T17:12:16.996Z,12.83
2019-01-31T17:14:47.196Z,9.80
2019-01-31T17:17:17.363Z,8.70
2019-01-31T17:19:47.371Z,11.77
2019-01-31T17:22:17.353Z,11.40
2019-01-31T17:24:48.061Z,12.60
2019-01-31T17:27:20.626Z,11.70
2019-01-31T17:29:50.851Z,12.17
2019-01-31T17:32:21.323Z,11.27
2019-01-31T17:34:52.331Z,12.80
2019-01-31T17:37:23.003Z,18.83
2019-01-31T17:39:54.696Z,19.03
2019-01-31T17:42:25.273Z,14.00
2019-01-31T17:44:57.149Z,14.67
2019-01-31T17:47:27.802Z,13.83
2019-01-31T17:49:58.431Z,11.47
2019-01-31T17:52:29.111Z,10.70
2019-01-31T17:55:00.128Z,9.57
2019-01-31T17:57:31.068Z,9.87
2019-01-31T18:00:01.984Z,8.60
2019-01-31T18:02:44.679Z,13.67
2019-01-31T18:05:05.507Z,15.40
2019-01-31T18:07:36.547Z,15.77
2019-01-31T18:10:13.126Z,47.03
2019-01-31T18:12:44.110Z,39.50
2019-01-31T18:15:15.357Z,32.50
2019-01-31T18:17:46.842Z,17.63
2019-01-31T18:20:20.941Z,13.60
2019-01-31T18:22:52.401Z,12.70
2019-01-31T18:25:23.553Z,12.33
2019-01-31T18:27:54.849Z,12.70
2019-01-31T18:30:27.555Z,12.97
2019-01-31T18:32:57.637Z,14.67
2019-01-31T18:35:27.604Z,13.80
2019-01-31T18:37:57.690Z,13.60
2019-01-31T18:40:31.080Z,13.77
2019-01-31T18:43:00.984Z,24.63
2019-01-31T18:45:32.334Z,32.53
2019-01-31T18:48:03.563Z,26.37
2019-01-31T18:50:35.779Z,30.20
2019-01-31T18:53:06.277Z,25.70
2019-01-31T18:55:36.572Z,33.17
2019-01-31T18:58:07.185Z,19.17
2019-01-31T19:00:39.620Z,16.90
2019-01-31T19:03:09.923Z,16.40
2019-01-31T19:05:39.854Z,22.77
2019-01-31T19:08:09.833Z,22.63
2019-01-31T19:10:43.879Z,23.20
2019-01-31T19:13:11.466Z,20.03
2019-01-31T19:15:41.968Z,20.13
2019-01-31T19:18:12.057Z,19.17
2019-01-31T19:20:42.251Z,19.37
2019-01-31T19:23:12.391Z,20.50
2019-01-31T19:25:42.535Z,20.90
2019-01-31T19:28:13.273Z,21.17
2019-01-31T19:30:43.654Z,20.47
2019-01-31T19:33:13.691Z,19.93
2019-01-31T19:35:43.607Z,20.53
2019-01-31T19:38:13.891Z,19.37
2019-01-31T19:40:46.355Z,19.37
2019-01-31T19:43:16.344Z,20.43
2019-01-31T19:45:51.152Z,22.00
2019-01-31T19:48:21.196Z,21.70
2019-01-31T19:50:51.391Z,22.73
2019-01-31T19:53:21.840Z,22.03
2019-01-31T19:55:51.755Z,21.00
2019-01-31T19:58:21.671Z,23.20
2019-01-31T20:00:51.664Z,24.87
2019-01-31T20:03:21.992Z,30.00
2019-01-31T20:05:52.071Z,27.07
2019-01-31T20:08:22.086Z,25.23
2019-01-31T20:10:52.192Z,23.03
2019-01-31T20:13:22.196Z,20.27
2019-01-31T20:15:52.339Z,19.30
2019-01-31T20:18:22.475Z,19.33
2019-01-31T20:20:53.665Z,20.60
2019-01-31T20:23:23.660Z,21.27
2019-01-31T20:25:53.785Z,22.80
2019-01-31T20:28:26.752Z,24.63
2019-01-31T20:30:57.028Z,26.07
2019-01-31T20:33:27.031Z,27.60
2019-01-31T20:35:57.046Z,24.57
2019-01-31T20:38:27.007Z,22.73
2019-01-31T20:40:57.011Z,24.07
2019-01-31T20:43:26.899Z,25.93
2019-01-31T20:45:56.919Z,23.60
2019-01-31T20:48:26.851Z,22.37
2019-01-31T20:50:56.862Z,21.33
2019-01-31T20:53:27.978Z,22.00
2019-01-31T20:55:57.901Z,23.53
2019-01-31T20:58:28.070Z,31.17
2019-01-31T21:00:58.015Z,27.03
2019-01-31T21:03:27.952Z,25.07
2019-01-31T21:05:57.820Z,25.67
2019-01-31T21:08:27.783Z,27.03
2019-01-31T21:10:57.780Z,25.77
2019-01-31T21:13:27.796Z,26.17
2019-01-31T21:15:57.628Z,24.57
2019-01-31T21:18:27.497Z,27.33
2019-01-31T21:20:57.457Z,28.93
2019-01-31T21:23:27.476Z,26.63
2019-01-31T21:25:57.468Z,25.30
2019-01-31T21:28:27.720Z,24.53
2019-01-31T21:30:57.667Z,24.83
2019-01-31T21:33:27.506Z,25.57
2019-01-31T21:35:57.460Z,25.27
2019-01-31T21:38:27.328Z,24.40
2019-01-31T21:40:57.595Z,23.43
2019-01-31T21:43:27.463Z,29.40
2019-01-31T21:45:57.476Z,28.93
2019-01-31T21:48:30.293Z,26.70
2019-01-31T21:50:58.932Z,25.53
2019-01-31T21:53:28.960Z,23.67
2019-01-31T21:55:58.928Z,24.03
2019-01-31T21:58:28.808Z,26.63
2019-01-31T22:00:58.693Z,26.30
2019-01-31T22:03:28.628Z,24.27
2019-01-31T22:05:58.586Z,25.57
2019-01-31T22:08:28.480Z,25.00
2019-01-31T22:10:58.320Z,24.10
2019-01-31T22:13:28.188Z,24.00
2019-01-31T22:15:58.043Z,23.60
2019-01-31T22:18:28.057Z,25.83
2019-01-31T22:20:57.906Z,28.00
2019-01-31T22:23:27.836Z,26.07
2019-01-31T22:25:57.707Z,26.63
2019-01-31T22:28:27.672Z,27.23
2019-01-31T22:30:57.529Z,27.43
2019-01-31T22:33:27.400Z,27.03
2019-01-31T22:35:57.256Z,26.77
2019-01-31T22:38:27.147Z,27.40
2019-01-31T22:40:57.020Z,30.43
2019-01-31T22:43:26.864Z,32.07
2019-01-31T22:45:56.710Z,29.50
2019-01-31T22:48:26.604Z,30.43
2019-01-31T22:50:56.521Z,30.33
2019-01-31T22:53:26.388Z,30.37
2019-01-31T22:55:56.268Z,30.70
2019-01-31T22:58:26.151Z,30.83
2019-01-31T23:01:31.301Z,31.93
2019-01-31T23:04:01.486Z,32.90
2019-01-31T23:06:31.356Z,31.63
2019-01-31T23:09:01.255Z,30.53
2019-01-31T23:11:31.122Z,30.00
2019-01-31T23:14:01.072Z,29.80
2019-01-31T23:16:31.051Z,29.00
2019-01-31T23:19:00.988Z,29.80
2019-01-31T23:21:30.906Z,29.57
2019-01-31T23:24:00.887Z,29.17
2019-01-31T23:26:30.839Z,28.63
2019-01-31T23:29:00.751Z,28.53
2019-01-31T23:31:30.710Z,28.37
2019-01-31T23:34:00.560Z,28.83
2019-01-31T23:36:30.391Z,28.67
2019-01-31T23:39:02.832Z,27.83
2019-01-31T23:41:32.884Z,28.23
2019-01-31T23:44:02.880Z,28.50
2019-01-31T23:46:32.820Z,26.93
2019-01-31T23:49:02.738Z,26.17
2019-01-31T23:51:32.691Z,26.33
2019-01-31T23:54:02.540Z,25.40
2019-01-31T23:56:32.418Z,24.90
2019-01-31T23:59:02.288Z,23.40
